createdAt,value
2022-08-26T00:01:00.279Z,6.43
2022-08-26T00:06:02.171Z,6.57
2022-08-26T00:11:05.620Z,6.95
2022-08-26T00:16:08.982Z,6.30
2022-08-26T00:21:13.287Z,6.40
2022-08-26T00:26:14.990Z,6.80
2022-08-26T00:31:16.769Z,6.57
2022-08-26T00:36:20.322Z,6.40
2022-08-26T00:41:22.228Z,6.60
2022-08-26T00:46:28.863Z,6.35
2022-08-26T00:51:31.352Z,6.53
2022-08-26T00:56:37.459Z,6.63
2022-08-26T01:01:43.372Z,7.15
2022-08-26T01:06:50.508Z,6.15
2022-08-26T01:11:55.937Z,6.72
2022-08-26T01:16:58.374Z,6.88
2022-08-26T01:22:06.366Z,6.72
2022-08-26T01:27:10.831Z,7.05
2022-08-26T01:32:18.415Z,7.35
2022-08-26T01:37:27.545Z,6.90
2022-08-26T01:42:29.371Z,7.03
2022-08-26T01:47:35.407Z,6.85
2022-08-26T01:52:41.212Z,7.13
2022-08-26T01:57:47.459Z,7.68
2022-08-26T02:03:13.218Z,7.25
2022-08-26T02:08:17.490Z,7.57
2022-08-26T02:13:30.009Z,7.65
2022-08-26T02:18:35.011Z,7.45
2022-08-26T02:23:37.574Z,7.90
2022-08-26T02:28:56.198Z,7.93
2022-08-26T02:34:11.611Z,7.72
2022-08-26T02:39:16.921Z,7.05
2022-08-26T02:44:23.736Z,7.55
2022-08-26T02:49:27.883Z,7.43
2022-08-26T02:54:29.753Z,8.30
2022-08-26T02:59:31.920Z,7.60
2022-08-26T03:04:33.838Z,7.93
2022-08-26T03:09:35.654Z,7.03
2022-08-26T03:14:37.664Z,7.82
2022-08-26T03:19:39.771Z,8.02
2022-08-26T03:24:46.031Z,8.20
2022-08-26T03:30:06.712Z,8.88
2022-08-26T03:35:09.082Z,7.57
2022-08-26T03:40:11.517Z,7.90
2022-08-26T03:45:15.361Z,8.23
2022-08-26T03:50:22.663Z,7.70
2022-08-26T03:55:28.036Z,8.57
2022-08-26T04:00:30.109Z,8.15
2022-08-26T04:05:31.717Z,8.57
2022-08-26T04:10:33.344Z,9.38
2022-08-26T04:15:35.015Z,9.55
2022-08-26T04:20:36.656Z,9.88
2022-08-26T04:25:38.274Z,10.68
2022-08-26T04:30:42.408Z,10.90
2022-08-26T04:35:45.172Z,11.13
2022-08-26T04:40:49.470Z,10.52
2022-08-26T04:45:51.194Z,11.18
2022-08-26T04:50:53.250Z,10.73
2022-08-26T04:55:55.421Z,10.40
2022-08-26T05:00:57.167Z,10.27
2022-08-26T05:05:58.811Z,10.43
2022-08-26T05:11:05.080Z,10.35
2022-08-26T05:16:11.567Z,10.55
2022-08-26T05:21:22.144Z,10.63
2022-08-26T05:26:27.714Z,11.32
2022-08-26T05:31:31.903Z,11.40
2022-08-26T05:36:35.335Z,11.77
2022-08-26T05:41:40.938Z,11.05
2022-08-26T05:46:44.569Z,11.80
2022-08-26T05:51:47.685Z,10.30
2022-08-26T05:56:51.028Z,10.82
2022-08-26T06:01:54.707Z,10.30
2022-08-26T06:06:56.898Z,10.32
2022-08-26T06:11:58.771Z,10.60
2022-08-26T06:17:00.760Z,10.77
2022-08-26T06:22:23.608Z,10.65
2022-08-26T06:27:29.402Z,10.25
2022-08-26T06:32:34.166Z,10.13
2022-08-26T06:37:35.771Z,10.30
2022-08-26T06:42:38.080Z,11.25
2022-08-26T06:47:40.980Z,10.90
2022-08-26T06:52:42.722Z,12.18
2022-08-26T06:57:44.352Z,11.10
2022-08-26T07:02:46.232Z,10.68
2022-08-26T07:07:49.184Z,10.93
2022-08-26T07:12:51.419Z,9.65
2022-08-26T07:17:53.040Z,12.60
2022-08-26T07:22:54.671Z,10.63
2022-08-26T07:27:56.399Z,9.13
2022-08-26T07:32:59.213Z,11.30
2022-08-26T07:38:01.647Z,11.02
2022-08-26T07:43:03.914Z,12.70
2022-08-26T07:48:05.708Z,8.15
2022-08-26T07:53:07.680Z,8.65
2022-08-26T07:58:12.351Z,8.98
2022-08-26T08:03:15.055Z,8.40
2022-08-26T08:08:26.264Z,8.50
2022-08-26T08:13:29.609Z,8.73
2022-08-26T08:18:31.775Z,9.82
2022-08-26T08:23:33.494Z,9.90
2022-08-26T08:28:38.853Z,9.30
2022-08-26T08:33:40.459Z,9.67
2022-08-26T08:38:44.310Z,8.95
2022-08-26T08:43:47.346Z,10.02
2022-08-26T08:48:56.777Z,8.05
2022-08-26T08:54:00.420Z,8.10
2022-08-26T08:59:25.081Z,8.90
2022-08-26T09:04:44.563Z,7.80
2022-08-26T09:09:57.623Z,7.63
2022-08-26T09:15:07.683Z,7.47
2022-08-26T09:20:20.468Z,7.22
2022-08-26T09:25:22.430Z,8.13
2022-08-26T09:30:31.595Z,7.88
2022-08-26T09:35:37.633Z,7.80
2022-08-26T09:40:39.946Z,7.10
2022-08-26T09:45:50.315Z,6.90
2022-08-26T09:51:03.751Z,6.75
2022-08-26T09:56:25.263Z,6.78
2022-08-26T10:01:34.870Z,6.85
2022-08-26T10:06:43.067Z,7.35
2022-08-26T10:11:51.738Z,8.05
2022-08-26T10:17:08.795Z,6.90
2022-08-26T10:22:44.328Z,7.60
2022-08-26T10:27:59.426Z,7.33
2022-08-26T10:33:08.212Z,7.60
2022-08-26T10:38:16.263Z,7.85
2022-08-26T10:43:23.662Z,7.63
2022-08-26T10:48:49.895Z,7.70
2022-08-26T10:54:01.111Z,7.82
2022-08-26T10:59:32.750Z,7.38
2022-08-26T11:05:02.859Z,7.40
2022-08-26T11:10:09.236Z,6.90
2022-08-26T11:15:20.007Z,7.60
2022-08-26T11:20:39.103Z,6.65
2022-08-26T11:26:01.190Z,6.50
2022-08-26T11:31:05.790Z,7.68
2022-08-26T11:36:12.361Z,7.65
2022-08-26T11:41:21.159Z,8.32
2022-08-26T11:46:28.598Z,7.97
2022-08-26T11:51:31.502Z,8.02
2022-08-26T11:56:35.644Z,8.23
2022-08-26T12:01:41.725Z,8.43
2022-08-26T12:06:50.826Z,6.70
2022-08-26T12:11:54.109Z,6.50
2022-08-26T12:17:10.070Z,5.43
2022-08-26T12:22:25.295Z,5.55
2022-08-26T12:27:34.529Z,5.47
2022-08-26T12:32:52.850Z,5.60
2022-08-26T12:38:00.321Z,5.85
2022-08-26T12:43:04.791Z,5.47
2022-08-26T12:48:13.453Z,5.45
2022-08-26T12:53:23.841Z,5.63
2022-08-26T12:58:28.317Z,5.70
2022-08-26T13:03:40.206Z,5.18
2022-08-26T13:08:53.770Z,5.68
2022-08-26T13:14:01.848Z,5.78
2022-08-26T13:19:06.428Z,5.75
2022-08-26T13:24:15.488Z,6.68
2022-08-26T13:29:18.172Z,6.03
2022-08-26T13:34:22.783Z,4.82
2022-08-26T13:39:25.692Z,5.32
2022-08-26T13:44:27.639Z,5.32
2022-08-26T13:49:29.519Z,5.45
2022-08-26T13:54:31.159Z,6.28
2022-08-26T13:59:32.794Z,4.72
2022-08-26T14:04:34.404Z,4.90
2022-08-26T14:09:38.400Z,4.78
2022-08-26T14:14:40.225Z,4.55
2022-08-26T14:19:45.783Z,4.75
2022-08-26T14:24:47.963Z,4.57
2022-08-26T14:29:49.600Z,4.60
2022-08-26T14:34:51.982Z,4.90
2022-08-26T14:39:53.811Z,4.47
2022-08-26T14:44:58.416Z,4.65
2022-08-26T14:50:00.057Z,4.63
2022-08-26T14:55:01.675Z,4.43
2022-08-26T15:00:04.230Z,4.65
2022-08-26T15:05:08.399Z,6.53
2022-08-26T15:10:13.622Z,5.70
2022-08-26T15:15:17.191Z,5.28
2022-08-26T15:20:19.416Z,5.30
2022-08-26T15:25:21.306Z,4.93
2022-08-26T15:30:22.943Z,5.07
2022-08-26T15:35:24.577Z,5.35
2022-08-26T15:40:26.542Z,4.93
2022-08-26T15:45:28.245Z,5.35
2022-08-26T15:50:30.048Z,4.93
2022-08-26T15:55:31.677Z,5.35
2022-08-26T16:00:33.306Z,5.45
2022-08-26T16:05:39.680Z,7.03
2022-08-26T16:10:49.811Z,4.97
2022-08-26T16:15:53.679Z,5.20
2022-08-26T16:21:12.682Z,5.75
2022-08-26T16:26:18.712Z,6.80
2022-08-26T16:31:21.513Z,6.65
2022-08-26T16:36:23.239Z,7.22
2022-08-26T16:41:27.203Z,6.28
2022-08-26T16:46:29.099Z,6.32
2022-08-26T16:51:32.395Z,6.88
2022-08-26T16:56:39.502Z,5.80
2022-08-26T17:01:41.192Z,6.07
2022-08-26T17:06:42.875Z,5.82
2022-08-26T17:11:44.594Z,5.43
2022-08-26T17:16:46.383Z,5.47
2022-08-26T17:21:48.151Z,5.18
2022-08-26T17:26:53.459Z,5.75
2022-08-26T17:31:57.244Z,5.90
2022-08-26T17:36:59.349Z,6.13
2022-08-26T17:42:00.955Z,6.40
2022-08-26T17:47:02.599Z,7.13
2022-08-26T17:52:07.490Z,7.50
2022-08-26T17:57:12.624Z,7.50
2022-08-26T18:02:14.234Z,7.93
2022-08-26T18:07:16.861Z,7.72
2022-08-26T18:12:18.488Z,7.80
2022-08-26T18:17:20.175Z,7.38
2022-08-26T18:22:23.132Z,7.25
2022-08-26T18:27:24.766Z,11.38
2022-08-26T18:32:26.454Z,7.97
2022-08-26T18:37:31.036Z,8.73
2022-08-26T18:42:33.710Z,10.80
2022-08-26T18:47:35.827Z,9.60
2022-08-26T18:52:37.670Z,9.50
2022-08-26T18:57:39.339Z,11.57
2022-08-26T19:02:41.126Z,9.70
2022-08-26T19:07:44.892Z,10.40
2022-08-26T19:12:51.919Z,10.10
2022-08-26T19:17:54.088Z,11.93
2022-08-26T19:22:59.666Z,10.68
2022-08-26T19:28:04.260Z,10.30
2022-08-26T19:33:09.147Z,10.93
2022-08-26T19:38:11.871Z,10.73
2022-08-26T19:43:13.598Z,12.68
2022-08-26T19:48:16.287Z,12.10
2022-08-26T19:53:19.699Z,10.75
2022-08-26T19:58:21.343Z,9.13
2022-08-26T20:03:23.837Z,8.77
2022-08-26T20:08:25.549Z,8.50
2022-08-26T20:13:28.158Z,6.88
2022-08-26T20:18:58.868Z,7.25
2022-08-26T20:24:07.111Z,10.07
2022-08-26T20:29:10.554Z,6.28
2022-08-26T20:34:14.290Z,5.22
2022-08-26T20:39:17.648Z,4.68
2022-08-26T20:44:19.656Z,4.43
2022-08-26T20:49:21.365Z,4.10
2022-08-26T20:54:28.279Z,4.30
2022-08-26T20:59:30.268Z,4.22
2022-08-26T21:04:32.271Z,4.07
2022-08-26T21:09:33.988Z,4.00
2022-08-26T21:14:35.682Z,4.10
2022-08-26T21:19:37.525Z,3.90
2022-08-26T21:24:39.145Z,4.13
2022-08-26T21:29:40.754Z,4.13
2022-08-26T21:34:42.387Z,3.65
2022-08-26T21:39:44.184Z,4.38
2022-08-26T21:44:50.830Z,4.13
2022-08-26T21:49:54.708Z,3.90
2022-08-26T21:55:01.202Z,3.90
2022-08-26T22:05:07.590Z,3.75
2022-08-26T22:10:09.354Z,3.97
2022-08-26T22:15:12.062Z,4.38
2022-08-26T22:20:16.540Z,4.15
2022-08-26T22:25:18.651Z,4.28
2022-08-26T22:30:20.434Z,4.30
2022-08-26T22:35:28.956Z,4.20
2022-08-26T22:40:31.416Z,4.28
2022-08-26T22:45:33.339Z,4.35
2022-08-26T22:50:35.439Z,3.85
2022-08-26T22:55:37.294Z,3.63
2022-08-26T23:00:39.920Z,5.30
2022-08-26T23:05:43.011Z,6.07
2022-08-26T23:10:47.207Z,4.30
2022-08-26T23:15:48.825Z,3.78
2022-08-26T23:20:50.443Z,4.28
2022-08-26T23:25:52.076Z,3.72
2022-08-26T23:30:54.092Z,4.30
2022-08-26T23:35:56.851Z,3.97
2022-08-26T23:40:58.942Z,4.13
2022-08-26T23:46:00.612Z,4.13
2022-08-26T23:51:21.256Z,5.00
2022-08-26T23:56:22.915Z,4.72
